sensor_id;sensor_type;location;lat;lon;timestamp;P1;durP1;ratioP1;P2;durP2;ratioP2
58928;SDS011;44713;53.378;10.022;2023-06-24T00:01:23;9.60;;;7.60;;
58928;SDS011;44713;53.378;10.022;2023-06-24T00:03:49;7.10;;;6.40;;
58928;SDS011;44713;53.378;10.022;2023-06-24T00:06:18;7.70;;;6.90;;
58928;SDS011;44713;53.378;10.022;2023-06-24T00:08:50;8.90;;;7.25;;
58928;SDS011;44713;53.378;10.022;2023-06-24T00:11:15;8.88;;;7.32;;
58928;SDS011;44713;53.378;10.022;2023-06-24T00:13:41;9.43;;;7.43;;
58928;SDS011;44713;53.378;10.022;2023-06-24T00:16:08;9.88;;;7.03;;
58928;SDS011;44713;53.378;10.022;2023-06-24T00:18:33;11.13;;;7.68;;
58928;SDS011;44713;53.378;10.022;2023-06-24T00:20:59;9.70;;;7.15;;
58928;SDS011;44713;53.378;10.022;2023-06-24T00:23:26;11.85;;;7.70;;
58928;SDS011;44713;53.378;10.022;2023-06-24T00:25:53;7.35;;;6.32;;
58928;SDS011;44713;53.378;10.022;2023-06-24T00:28:19;8.77;;;6.55;;
58928;SDS011;44713;53.378;10.022;2023-06-24T00:30:46;6.70;;;5.78;;
58928;SDS011;44713;53.378;10.022;2023-06-24T00:33:12;9.13;;;8.02;;
58928;SDS011;44713;53.378;10.022;2023-06-24T00:35:38;11.20;;;8.80;;
58928;SDS011;44713;53.378;10.022;2023-06-24T00:38:08;12.13;;;8.98;;
58928;SDS011;44713;53.378;10.022;2023-06-24T00:40:33;12.02;;;9.82;;
58928;SDS011;44713;53.378;10.022;2023-06-24T00:42:59;13.15;;;9.73;;
58928;SDS011;44713;53.378;10.022;2023-06-24T00:45:26;7.70;;;6.60;;
58928;SDS011;44713;53.378;10.022;2023-06-24T00:47:52;12.32;;;9.77;;
58928;SDS011;44713;53.378;10.022;2023-06-24T00:50:19;10.90;;;9.80;;
58928;SDS011;44713;53.378;10.022;2023-06-24T00:52:45;11.68;;;8.02;;
58928;SDS011;44713;53.378;10.022;2023-06-24T00:55:11;7.40;;;6.70;;
58928;SDS011;44713;53.378;10.022;2023-06-24T00:57:41;11.82;;;9.35;;
58928;SDS011;44713;53.378;10.022;2023-06-24T01:00:08;8.90;;;7.97;;
58928;SDS011;44713;53.378;10.022;2023-06-24T01:02:39;10.93;;;9.20;;
58928;SDS011;44713;53.378;10.022;2023-06-24T01:05:07;11.55;;;10.07;;
58928;SDS011;44713;53.378;10.022;2023-06-24T01:07:33;8.95;;;8.10;;
58928;SDS011;44713;53.378;10.022;2023-06-24T01:10:03;9.88;;;8.73;;
58928;SDS011;44713;53.378;10.022;2023-06-24T01:12:35;11.13;;;7.78;;
58928;SDS011;44713;53.378;10.022;2023-06-24T01:15:03;7.75;;;6.82;;
58928;SDS011;44713;53.378;10.022;2023-06-24T01:17:35;9.65;;;7.28;;
58928;SDS011;44713;53.378;10.022;2023-06-24T01:20:11;12.02;;;8.65;;
58928;SDS011;44713;53.378;10.022;2023-06-24T01:25:43;13.48;;;10.25;;
58928;SDS011;44713;53.378;10.022;2023-06-24T01:34:24;8.68;;;7.82;;
58928;SDS011;44713;53.378;10.022;2023-06-24T01:39:49;10.00;;;7.53;;
58928;SDS011;44713;53.378;10.022;2023-06-24T01:42:19;8.68;;;7.78;;
58928;SDS011;44713;53.378;10.022;2023-06-24T01:44:47;8.35;;;7.55;;
58928;SDS011;44713;53.378;10.022;2023-06-24T01:47:14;11.43;;;8.27;;
58928;SDS011;44713;53.378;10.022;2023-06-24T01:49:52;8.98;;;8.07;;
58928;SDS011;44713;53.378;10.022;2023-06-24T01:52:20;9.73;;;8.32;;
58928;SDS011;44713;53.378;10.022;2023-06-24T01:54:48;10.68;;;9.68;;
58928;SDS011;44713;53.378;10.022;2023-06-24T01:57:15;8.13;;;7.30;;
58928;SDS011;44713;53.378;10.022;2023-06-24T01:59:42;9.85;;;8.38;;
58928;SDS011;44713;53.378;10.022;2023-06-24T02:02:10;15.10;;;10.10;;
58928;SDS011;44713;53.378;10.022;2023-06-24T02:04:38;8.95;;;8.05;;
58928;SDS011;44713;53.378;10.022;2023-06-24T02:07:04;7.35;;;6.65;;
58928;SDS011;44713;53.378;10.022;2023-06-24T02:09:29;8.13;;;7.32;;
58928;SDS011;44713;53.378;10.022;2023-06-24T02:11:58;9.77;;;7.28;;
58928;SDS011;44713;53.378;10.022;2023-06-24T02:14:26;8.60;;;7.78;;
58928;SDS011;44713;53.378;10.022;2023-06-24T02:16:53;7.90;;;7.10;;
58928;SDS011;44713;53.378;10.022;2023-06-24T02:19:21;11.50;;;10.10;;
58928;SDS011;44713;53.378;10.022;2023-06-24T02:21:49;12.38;;;10.10;;
58928;SDS011;44713;53.378;10.022;2023-06-24T02:24:17;9.82;;;8.77;;
58928;SDS011;44713;53.378;10.022;2023-06-24T02:26:44;12.75;;;10.00;;
58928;SDS011;44713;53.378;10.022;2023-06-24T02:29:11;12.27;;;10.68;;
58928;SDS011;44713;53.378;10.022;2023-06-24T02:31:37;14.57;;;12.38;;
58928;SDS011;44713;53.378;10.022;2023-06-24T02:34:03;12.75;;;10.02;;
58928;SDS011;44713;53.378;10.022;2023-06-24T02:36:29;11.82;;;9.00;;
58928;SDS011;44713;53.378;10.022;2023-06-24T02:38:54;10.63;;;9.30;;
58928;SDS011;44713;53.378;10.022;2023-06-24T02:41:19;10.35;;;8.43;;
58928;SDS011;44713;53.378;10.022;2023-06-24T02:43:45;11.80;;;9.30;;
58928;SDS011;44713;53.378;10.022;2023-06-24T02:46:10;10.48;;;8.85;;
58928;SDS011;44713;53.378;10.022;2023-06-24T02:48:36;9.65;;;7.95;;
58928;SDS011;44713;53.378;10.022;2023-06-24T02:51:03;10.05;;;8.18;;
58928;SDS011;44713;53.378;10.022;2023-06-24T02:53:31;11.70;;;9.07;;
58928;SDS011;44713;53.378;10.022;2023-06-24T02:55:58;9.27;;;8.43;;
58928;SDS011;44713;53.378;10.022;2023-06-24T02:58:24;12.57;;;9.90;;
58928;SDS011;44713;53.378;10.022;2023-06-24T03:01:00;9.40;;;7.00;;
58928;SDS011;44713;53.378;10.022;2023-06-24T03:03:47;11.00;;;8.65;;
58928;SDS011;44713;53.378;10.022;2023-06-24T03:06:14;10.05;;;9.05;;
58928;SDS011;44713;53.378;10.022;2023-06-24T03:08:45;7.93;;;6.97;;
58928;SDS011;44713;53.378;10.022;2023-06-24T03:11:14;7.93;;;7.22;;
58928;SDS011;44713;53.378;10.022;2023-06-24T03:13:40;11.77;;;9.77;;
58928;SDS011;44713;53.378;10.022;2023-06-24T03:16:13;8.70;;;7.90;;
58928;SDS011;44713;53.378;10.022;2023-06-24T03:18:46;11.52;;;8.32;;
58928;SDS011;44713;53.378;10.022;2023-06-24T03:21:11;8.85;;;8.05;;
58928;SDS011;44713;53.378;10.022;2023-06-24T03:23:38;10.32;;;9.27;;
58928;SDS011;44713;53.378;10.022;2023-06-24T03:26:06;9.38;;;8.38;;
58928;SDS011;44713;53.378;10.022;2023-06-24T03:28:32;11.15;;;9.82;;
58928;SDS011;44713;53.378;10.022;2023-06-24T03:31:07;9.50;;;8.60;;
58928;SDS011;44713;53.378;10.022;2023-06-24T03:33:33;8.35;;;7.55;;
58928;SDS011;44713;53.378;10.022;2023-06-24T03:35:58;11.02;;;7.88;;
58928;SDS011;44713;53.378;10.022;2023-06-24T03:38:28;11.77;;;9.30;;
58928;SDS011;44713;53.378;10.022;2023-06-24T03:40:55;24.13;;;9.30;;
58928;SDS011;44713;53.378;10.022;2023-06-24T03:43:20;10.68;;;8.55;;
58928;SDS011;44713;53.378;10.022;2023-06-24T03:45:47;12.63;;;11.35;;
58928;SDS011;44713;53.378;10.022;2023-06-24T03:48:13;11.45;;;10.30;;
58928;SDS011;44713;53.378;10.022;2023-06-24T03:50:38;11.73;;;8.75;;
58928;SDS011;44713;53.378;10.022;2023-06-24T03:53:03;10.30;;;8.45;;
58928;SDS011;44713;53.378;10.022;2023-06-24T03:55:29;14.43;;;11.77;;
58928;SDS011;44713;53.378;10.022;2023-06-24T03:57:54;11.88;;;9.95;;
58928;SDS011;44713;53.378;10.022;2023-06-24T04:00:20;14.70;;;12.05;;
58928;SDS011;44713;53.378;10.022;2023-06-24T04:02:45;16.75;;;13.60;;
58928;SDS011;44713;53.378;10.022;2023-06-24T04:05:11;23.33;;;16.05;;
58928;SDS011;44713;53.378;10.022;2023-06-24T04:07:37;25.27;;;14.05;;
58928;SDS011;44713;53.378;10.022;2023-06-24T04:10:04;24.15;;;16.13;;
58928;SDS011;44713;53.378;10.022;2023-06-24T04:12:36;20.40;;;13.68;;
58928;SDS011;44713;53.378;10.022;2023-06-24T04:15:02;19.17;;;16.30;;
58928;SDS011;44713;53.378;10.022;2023-06-24T04:17:28;26.77;;;15.32;;
58928;SDS011;44713;53.378;10.022;2023-06-24T04:19:57;18.42;;;15.00;;
58928;SDS011;44713;53.378;10.022;2023-06-24T04:22:24;18.60;;;13.95;;
58928;SDS011;44713;53.378;10.022;2023-06-24T04:24:50;19.05;;;15.80;;
58928;SDS011;44713;53.378;10.022;2023-06-24T04:27:16;20.27;;;16.00;;
58928;SDS011;44713;53.378;10.022;2023-06-24T04:29:42;17.50;;;13.80;;
58928;SDS011;44713;53.378;10.022;2023-06-24T04:32:09;22.08;;;18.70;;
58928;SDS011;44713;53.378;10.022;2023-06-24T04:34:34;19.73;;;16.13;;
58928;SDS011;44713;53.378;10.022;2023-06-24T04:36:59;19.58;;;14.93;;
58928;SDS011;44713;53.378;10.022;2023-06-24T04:39:26;18.10;;;14.85;;
58928;SDS011;44713;53.378;10.022;2023-06-24T04:41:51;30.30;;;17.83;;
58928;SDS011;44713;53.378;10.022;2023-06-24T04:44:16;21.65;;;16.60;;
58928;SDS011;44713;53.378;10.022;2023-06-24T04:46:42;17.35;;;15.55;;
58928;SDS011;44713;53.378;10.022;2023-06-24T04:49:07;14.55;;;13.02;;
58928;SDS011;44713;53.378;10.022;2023-06-24T04:51:33;14.82;;;12.20;;
58928;SDS011;44713;53.378;10.022;2023-06-24T04:53:58;18.95;;;14.25;;
58928;SDS011;44713;53.378;10.022;2023-06-24T04:56:24;32.90;;;16.58;;
58928;SDS011;44713;53.378;10.022;2023-06-24T04:58:50;21.85;;;16.13;;
58928;SDS011;44713;53.378;10.022;2023-06-24T05:01:17;21.00;;;16.33;;
58928;SDS011;44713;53.378;10.022;2023-06-24T05:03:42;16.27;;;14.68;;
58928;SDS011;44713;53.378;10.022;2023-06-24T05:06:08;13.20;;;11.90;;
58928;SDS011;44713;53.378;10.022;2023-06-24T05:08:33;15.77;;;14.15;;
58928;SDS011;44713;53.378;10.022;2023-06-24T05:10:59;14.55;;;13.07;;
58928;SDS011;44713;53.378;10.022;2023-06-24T05:13:24;16.45;;;14.75;;
58928;SDS011;44713;53.378;10.022;2023-06-24T05:15:53;17.27;;;15.48;;
58928;SDS011;44713;53.378;10.022;2023-06-24T05:18:19;17.45;;;15.65;;
58928;SDS011;44713;53.378;10.022;2023-06-24T05:20:45;14.65;;;13.15;;
58928;SDS011;44713;53.378;10.022;2023-06-24T05:23:10;16.38;;;14.77;;
58928;SDS011;44713;53.378;10.022;2023-06-24T05:25:35;17.55;;;15.77;;
58928;SDS011;44713;53.378;10.022;2023-06-24T05:28:01;18.52;;;16.58;;
58928;SDS011;44713;53.378;10.022;2023-06-24T05:30:26;20.33;;;16.48;;
58928;SDS011;44713;53.378;10.022;2023-06-24T05:32:51;18.30;;;16.40;;
58928;SDS011;44713;53.378;10.022;2023-06-24T05:35:17;18.27;;;16.05;;
58928;SDS011;44713;53.378;10.022;2023-06-24T05:37:42;18.77;;;16.75;;
58928;SDS011;44713;53.378;10.022;2023-06-24T05:40:08;20.92;;;17.52;;
58928;SDS011;44713;53.378;10.022;2023-06-24T05:42:34;19.08;;;16.02;;
58928;SDS011;44713;53.378;10.022;2023-06-24T05:45:00;19.63;;;17.05;;
58928;SDS011;44713;53.378;10.022;2023-06-24T05:47:26;18.25;;;16.33;;
58928;SDS011;44713;53.378;10.022;2023-06-24T05:49:51;18.45;;;16.52;;
58928;SDS011;44713;53.378;10.022;2023-06-24T05:52:16;20.58;;;18.05;;
58928;SDS011;44713;53.378;10.022;2023-06-24T05:54:42;19.70;;;17.60;;
58928;SDS011;44713;53.378;10.022;2023-06-24T05:57:07;20.75;;;18.23;;
58928;SDS011;44713;53.378;10.022;2023-06-24T05:59:34;21.95;;;19.05;;
58928;SDS011;44713;53.378;10.022;2023-06-24T06:01:59;19.95;;;17.80;;
58928;SDS011;44713;53.378;10.022;2023-06-24T06:04:27;22.40;;;17.63;;
58928;SDS011;44713;53.378;10.022;2023-06-24T06:06:52;21.08;;;18.80;;
58928;SDS011;44713;53.378;10.022;2023-06-24T06:09:18;19.92;;;17.67;;
58928;SDS011;44713;53.378;10.022;2023-06-24T06:11:43;19.83;;;17.38;;
58928;SDS011;44713;53.378;10.022;2023-06-24T06:14:08;20.23;;;17.75;;
58928;SDS011;44713;53.378;10.022;2023-06-24T06:16:34;19.63;;;17.50;;
58928;SDS011;44713;53.378;10.022;2023-06-24T06:18:59;19.20;;;16.67;;
58928;SDS011;44713;53.378;10.022;2023-06-24T06:21:25;18.23;;;14.73;;
58928;SDS011;44713;53.378;10.022;2023-06-24T06:23:50;23.55;;;16.10;;
58928;SDS011;44713;53.378;10.022;2023-06-24T06:26:15;18.88;;;15.50;;
58928;SDS011;44713;53.378;10.022;2023-06-24T06:28:41;14.35;;;11.38;;
58928;SDS011;44713;53.378;10.022;2023-06-24T06:31:07;13.63;;;11.80;;
58928;SDS011;44713;53.378;10.022;2023-06-24T06:33:32;16.77;;;11.80;;
58928;SDS011;44713;53.378;10.022;2023-06-24T06:35:57;13.38;;;11.13;;
58928;SDS011;44713;53.378;10.022;2023-06-24T06:38:24;13.75;;;11.60;;
58928;SDS011;44713;53.378;10.022;2023-06-24T06:40:49;14.60;;;10.90;;
58928;SDS011;44713;53.378;10.022;2023-06-24T06:43:15;14.02;;;11.57;;
58928;SDS011;44713;53.378;10.022;2023-06-24T06:45:40;13.70;;;11.57;;
58928;SDS011;44713;53.378;10.022;2023-06-24T06:48:06;13.63;;;12.20;;
58928;SDS011;44713;53.378;10.022;2023-06-24T06:50:34;17.33;;;12.77;;
58928;SDS011;44713;53.378;10.022;2023-06-24T06:53:00;15.65;;;12.43;;
58928;SDS011;44713;53.378;10.022;2023-06-24T06:55:26;15.05;;;12.02;;
58928;SDS011;44713;53.378;10.022;2023-06-24T06:57:52;12.90;;;10.27;;
58928;SDS011;44713;53.378;10.022;2023-06-24T07:00:17;15.80;;;11.15;;
58928;SDS011;44713;53.378;10.022;2023-06-24T07:02:43;12.93;;;11.52;;
58928;SDS011;44713;53.378;10.022;2023-06-24T07:05:08;14.60;;;11.05;;
58928;SDS011;44713;53.378;10.022;2023-06-24T07:07:36;14.25;;;9.95;;
58928;SDS011;44713;53.378;10.022;2023-06-24T07:10:03;12.77;;;10.25;;
58928;SDS011;44713;53.378;10.022;2023-06-24T07:12:28;15.85;;;10.05;;
58928;SDS011;44713;53.378;10.022;2023-06-24T07:14:53;11.18;;;8.45;;
58928;SDS011;44713;53.378;10.022;2023-06-24T07:17:19;11.20;;;6.82;;
58928;SDS011;44713;53.378;10.022;2023-06-24T07:19:44;9.63;;;7.07;;
58928;SDS011;44713;53.378;10.022;2023-06-24T07:22:10;9.00;;;6.78;;
58928;SDS011;44713;53.378;10.022;2023-06-24T07:24:35;10.95;;;7.00;;
58928;SDS011;44713;53.378;10.022;2023-06-24T07:27:01;9.20;;;6.13;;
58928;SDS011;44713;53.378;10.022;2023-06-24T07:29:26;10.55;;;6.85;;
58928;SDS011;44713;53.378;10.022;2023-06-24T07:31:52;8.88;;;6.00;;
58928;SDS011;44713;53.378;10.022;2023-06-24T07:34:17;8.40;;;6.88;;
58928;SDS011;44713;53.378;10.022;2023-06-24T07:36:42;7.15;;;5.95;;
58928;SDS011;44713;53.378;10.022;2023-06-24T07:39:08;6.07;;;5.30;;
58928;SDS011;44713;53.378;10.022;2023-06-24T07:41:33;7.93;;;5.22;;
58928;SDS011;44713;53.378;10.022;2023-06-24T07:43:59;7.63;;;5.05;;
58928;SDS011;44713;53.378;10.022;2023-06-24T07:46:24;5.63;;;5.05;;
58928;SDS011;44713;53.378;10.022;2023-06-24T07:48:52;5.68;;;4.78;;
58928;SDS011;44713;53.378;10.022;2023-06-24T07:51:18;5.25;;;4.20;;
58928;SDS011;44713;53.378;10.022;2023-06-24T07:53:43;8.27;;;4.13;;
58928;SDS011;44713;53.378;10.022;2023-06-24T07:56:08;7.68;;;4.55;;
58928;SDS011;44713;53.378;10.022;2023-06-24T07:58:34;6.63;;;4.82;;
58928;SDS011;44713;53.378;10.022;2023-06-24T08:01:00;4.72;;;3.90;;
58928;SDS011;44713;53.378;10.022;2023-06-24T08:03:25;5.80;;;4.30;;
58928;SDS011;44713;53.378;10.022;2023-06-24T08:05:51;6.57;;;4.50;;
58928;SDS011;44713;53.378;10.022;2023-06-24T08:08:16;5.15;;;4.57;;
58928;SDS011;44713;53.378;10.022;2023-06-24T08:10:44;8.85;;;4.25;;
58928;SDS011;44713;53.378;10.022;2023-06-24T08:13:10;11.63;;;4.30;;
58928;SDS011;44713;53.378;10.022;2023-06-24T08:15:35;12.23;;;4.50;;
58928;SDS011;44713;53.378;10.022;2023-06-24T08:18:01;6.10;;;3.90;;
58928;SDS011;44713;53.378;10.022;2023-06-24T08:20:26;5.68;;;3.95;;
58928;SDS011;44713;53.378;10.022;2023-06-24T08:22:51;6.38;;;3.72;;
58928;SDS011;44713;53.378;10.022;2023-06-24T08:25:17;6.97;;;4.22;;
58928;SDS011;44713;53.378;10.022;2023-06-24T08:27:42;7.97;;;4.15;;
58928;SDS011;44713;53.378;10.022;2023-06-24T08:30:11;6.93;;;4.25;;
58928;SDS011;44713;53.378;10.022;2023-06-24T08:32:37;7.97;;;4.45;;
58928;SDS011;44713;53.378;10.022;2023-06-24T08:35:03;7.18;;;3.80;;
58928;SDS011;44713;53.378;10.022;2023-06-24T08:37:29;6.18;;;4.22;;
58928;SDS011;44713;53.378;10.022;2023-06-24T08:40:01;6.57;;;5.03;;
58928;SDS011;44713;53.378;10.022;2023-06-24T08:42:32;6.30;;;4.20;;
58928;SDS011;44713;53.378;10.022;2023-06-24T08:44:58;6.38;;;4.78;;
58928;SDS011;44713;53.378;10.022;2023-06-24T08:47:23;8.00;;;4.95;;
58928;SDS011;44713;53.378;10.022;2023-06-24T08:50:01;5.60;;;4.93;;
58928;SDS011;44713;53.378;10.022;2023-06-24T08:52:29;9.93;;;5.13;;
58928;SDS011;44713;53.378;10.022;2023-06-24T08:54:57;6.70;;;5.00;;
58928;SDS011;44713;53.378;10.022;2023-06-24T08:57:24;5.47;;;4.80;;
58928;SDS011;44713;53.378;10.022;2023-06-24T08:59:49;6.45;;;4.90;;
58928;SDS011;44713;53.378;10.022;2023-06-24T09:02:15;5.25;;;4.75;;
58928;SDS011;44713;53.378;10.022;2023-06-24T09:04:40;7.10;;;4.97;;
58928;SDS011;44713;53.378;10.022;2023-06-24T09:07:06;8.75;;;4.40;;
58928;SDS011;44713;53.378;10.022;2023-06-24T09:09:32;6.38;;;5.40;;
58928;SDS011;44713;53.378;10.022;2023-06-24T09:11:58;8.15;;;4.78;;
58928;SDS011;44713;53.378;10.022;2023-06-24T09:14:25;8.52;;;4.50;;
58928;SDS011;44713;53.378;10.022;2023-06-24T09:16:59;7.15;;;5.03;;
58928;SDS011;44713;53.378;10.022;2023-06-24T09:19:32;5.60;;;4.43;;
58928;SDS011;44713;53.378;10.022;2023-06-24T09:22:05;6.30;;;4.68;;
58928;SDS011;44713;53.378;10.022;2023-06-24T09:24:34;5.63;;;4.50;;
58928;SDS011;44713;53.378;10.022;2023-06-24T09:27:01;6.47;;;5.03;;
58928;SDS011;44713;53.378;10.022;2023-06-24T09:29:28;7.07;;;4.82;;
58928;SDS011;44713;53.378;10.022;2023-06-24T09:31:56;6.00;;;4.43;;
58928;SDS011;44713;53.378;10.022;2023-06-24T09:34:23;7.38;;;4.30;;
58928;SDS011;44713;53.378;10.022;2023-06-24T09:36:55;5.03;;;4.53;;
58928;SDS011;44713;53.378;10.022;2023-06-24T09:39:22;5.90;;;4.45;;
58928;SDS011;44713;53.378;10.022;2023-06-24T09:41:54;5.95;;;4.78;;
58928;SDS011;44713;53.378;10.022;2023-06-24T09:44:22;5.35;;;4.50;;
58928;SDS011;44713;53.378;10.022;2023-06-24T09:46:48;6.40;;;4.75;;
58928;SDS011;44713;53.378;10.022;2023-06-24T09:49:13;4.55;;;4.10;;
58928;SDS011;44713;53.378;10.022;2023-06-24T09:51:58;8.82;;;5.28;;
58928;SDS011;44713;53.378;10.022;2023-06-24T09:54:26;7.85;;;4.75;;
58928;SDS011;44713;53.378;10.022;2023-06-24T09:56:53;8.40;;;4.60;;
58928;SDS011;44713;53.378;10.022;2023-06-24T09:59:20;6.68;;;5.10;;
58928;SDS011;44713;53.378;10.022;2023-06-24T10:01:47;6.05;;;4.60;;
58928;SDS011;44713;53.378;10.022;2023-06-24T10:04:17;7.78;;;4.57;;
58928;SDS011;44713;53.378;10.022;2023-06-24T10:06:43;6.75;;;4.55;;
58928;SDS011;44713;53.378;10.022;2023-06-24T10:09:09;5.47;;;4.55;;
58928;SDS011;44713;53.378;10.022;2023-06-24T10:11:35;6.53;;;4.40;;
58928;SDS011;44713;53.378;10.022;2023-06-24T10:14:01;5.22;;;4.57;;
58928;SDS011;44713;53.378;10.022;2023-06-24T10:16:26;5.45;;;4.25;;
58928;SDS011;44713;53.378;10.022;2023-06-24T10:18:51;7.00;;;4.32;;
58928;SDS011;44713;53.378;10.022;2023-06-24T10:21:24;4.65;;;4.10;;
58928;SDS011;44713;53.378;10.022;2023-06-24T10:24:10;4.60;;;4.18;;
58928;SDS011;44713;53.378;10.022;2023-06-24T10:26:35;4.80;;;4.30;;
58928;SDS011;44713;53.378;10.022;2023-06-24T10:34:16;5.22;;;4.07;;
58928;SDS011;44713;53.378;10.022;2023-06-24T10:39:48;4.78;;;4.28;;
58928;SDS011;44713;53.378;10.022;2023-06-24T10:44:48;6.35;;;4.35;;
58928;SDS011;44713;53.378;10.022;2023-06-24T10:47:15;6.03;;;4.30;;
58928;SDS011;44713;53.378;10.022;2023-06-24T10:49:40;4.88;;;4.18;;
58928;SDS011;44713;53.378;10.022;2023-06-24T10:52:12;5.53;;;4.82;;
58928;SDS011;44713;53.378;10.022;2023-06-24T10:54:38;5.53;;;4.60;;
58928;SDS011;44713;53.378;10.022;2023-06-24T10:57:04;4.68;;;4.10;;
58928;SDS011;44713;53.378;10.022;2023-06-24T10:59:49;4.00;;;3.60;;
58928;SDS011;44713;53.378;10.022;2023-06-24T11:04:44;4.53;;;3.97;;
58928;SDS011;44713;53.378;10.022;2023-06-24T11:07:10;4.97;;;4.05;;
58928;SDS011;44713;53.378;10.022;2023-06-24T11:09:36;4.40;;;3.95;;
58928;SDS011;44713;53.378;10.022;2023-06-24T11:12:05;4.22;;;3.50;;
58928;SDS011;44713;53.378;10.022;2023-06-24T11:14:32;3.83;;;3.25;;
58928;SDS011;44713;53.378;10.022;2023-06-24T11:17:03;5.72;;;3.60;;
58928;SDS011;44713;53.378;10.022;2023-06-24T11:19:32;5.85;;;3.00;;
58928;SDS011;44713;53.378;10.022;2023-06-24T11:22:01;5.68;;;3.75;;
58928;SDS011;44713;53.378;10.022;2023-06-24T11:24:27;6.00;;;3.25;;
58928;SDS011;44713;53.378;10.022;2023-06-24T11:26:53;4.97;;;3.28;;
58928;SDS011;44713;53.378;10.022;2023-06-24T11:29:18;3.20;;;2.90;;
58928;SDS011;44713;53.378;10.022;2023-06-24T11:31:44;3.20;;;2.95;;
58928;SDS011;44713;53.378;10.022;2023-06-24T11:34:12;5.13;;;3.20;;
58928;SDS011;44713;53.378;10.022;2023-06-24T11:36:38;7.82;;;3.80;;
58928;SDS011;44713;53.378;10.022;2023-06-24T11:39:03;8.73;;;4.00;;
58928;SDS011;44713;53.378;10.022;2023-06-24T11:41:28;5.03;;;3.58;;
58928;SDS011;44713;53.378;10.022;2023-06-24T11:43:54;4.38;;;3.65;;
58928;SDS011;44713;53.378;10.022;2023-06-24T11:46:29;6.63;;;3.80;;
58928;SDS011;44713;53.378;10.022;2023-06-24T11:49:07;5.60;;;3.38;;
58928;SDS011;44713;53.378;10.022;2023-06-24T11:51:33;4.15;;;3.78;;
58928;SDS011;44713;53.378;10.022;2023-06-24T11:54:00;5.18;;;3.80;;
58928;SDS011;44713;53.378;10.022;2023-06-24T11:56:33;5.35;;;3.55;;
58928;SDS011;44713;53.378;10.022;2023-06-24T11:59:15;5.28;;;3.25;;
58928;SDS011;44713;53.378;10.022;2023-06-24T12:01:42;4.75;;;3.13;;
58928;SDS011;44713;53.378;10.022;2023-06-24T12:04:11;4.05;;;3.28;;
58928;SDS011;44713;53.378;10.022;2023-06-24T12:06:43;5.07;;;3.30;;
58928;SDS011;44713;53.378;10.022;2023-06-24T12:09:09;3.78;;;3.30;;
58928;SDS011;44713;53.378;10.022;2023-06-24T12:11:41;4.30;;;3.50;;
58928;SDS011;44713;53.378;10.022;2023-06-24T12:14:26;6.82;;;3.95;;
58928;SDS011;44713;53.378;10.022;2023-06-24T12:16:51;4.15;;;3.30;;
58928;SDS011;44713;53.378;10.022;2023-06-24T12:19:16;3.30;;;3.00;;
58928;SDS011;44713;53.378;10.022;2023-06-24T12:21:42;5.13;;;3.20;;
58928;SDS011;44713;53.378;10.022;2023-06-24T12:24:07;3.80;;;2.70;;
58928;SDS011;44713;53.378;10.022;2023-06-24T12:26:33;4.97;;;3.30;;
58928;SDS011;44713;53.378;10.022;2023-06-24T12:28:59;4.55;;;3.10;;
58928;SDS011;44713;53.378;10.022;2023-06-24T12:31:25;3.88;;;3.45;;
58928;SDS011;44713;53.378;10.022;2023-06-24T12:33:51;5.57;;;3.03;;
58928;SDS011;44713;53.378;10.022;2023-06-24T12:36:17;3.78;;;3.40;;
58928;SDS011;44713;53.378;10.022;2023-06-24T12:38:43;3.60;;;3.30;;
58928;SDS011;44713;53.378;10.022;2023-06-24T12:41:08;5.50;;;3.83;;
58928;SDS011;44713;53.378;10.022;2023-06-24T12:43:34;4.25;;;3.20;;
58928;SDS011;44713;53.378;10.022;2023-06-24T12:45:59;6.70;;;3.60;;
58928;SDS011;44713;53.378;10.022;2023-06-24T12:48:25;4.25;;;2.95;;
58928;SDS011;44713;53.378;10.022;2023-06-24T12:50:51;3.55;;;3.20;;
58928;SDS011;44713;53.378;10.022;2023-06-24T12:53:18;5.88;;;3.50;;
58928;SDS011;44713;53.378;10.022;2023-06-24T12:55:45;4.00;;;3.42;;
58928;SDS011;44713;53.378;10.022;2023-06-24T12:58:12;4.32;;;3.33;;
58928;SDS011;44713;53.378;10.022;2023-06-24T13:00:44;3.60;;;3.28;;
58928;SDS011;44713;53.378;10.022;2023-06-24T13:03:09;3.40;;;3.10;;
58928;SDS011;44713;53.378;10.022;2023-06-24T13:05:34;3.65;;;3.30;;
58928;SDS011;44713;53.378;10.022;2023-06-24T13:08:00;3.47;;;3.17;;
58928;SDS011;44713;53.378;10.022;2023-06-24T13:10:25;7.30;;;3.72;;
58928;SDS011;44713;53.378;10.022;2023-06-24T13:12:50;5.55;;;3.55;;
58928;SDS011;44713;53.378;10.022;2023-06-24T13:15:16;5.60;;;3.47;;
58928;SDS011;44713;53.378;10.022;2023-06-24T13:17:41;3.95;;;3.33;;
58928;SDS011;44713;53.378;10.022;2023-06-24T13:20:07;4.75;;;3.50;;
58928;SDS011;44713;53.378;10.022;2023-06-24T13:22:33;3.92;;;3.47;;
58928;SDS011;44713;53.378;10.022;2023-06-24T13:24:58;4.13;;;3.13;;
58928;SDS011;44713;53.378;10.022;2023-06-24T13:27:23;4.72;;;3.17;;
58928;SDS011;44713;53.378;10.022;2023-06-24T13:29:49;5.35;;;3.25;;
58928;SDS011;44713;53.378;10.022;2023-06-24T13:32:14;4.15;;;3.42;;
58928;SDS011;44713;53.378;10.022;2023-06-24T13:34:39;3.78;;;3.47;;
58928;SDS011;44713;53.378;10.022;2023-06-24T13:37:05;3.53;;;3.15;;
58928;SDS011;44713;53.378;10.022;2023-06-24T13:39:30;6.05;;;3.22;;
58928;SDS011;44713;53.378;10.022;2023-06-24T13:41:56;5.75;;;3.20;;
58928;SDS011;44713;53.378;10.022;2023-06-24T13:44:22;4.05;;;3.00;;
58928;SDS011;44713;53.378;10.022;2023-06-24T13:46:47;6.55;;;3.63;;
58928;SDS011;44713;53.378;10.022;2023-06-24T13:49:12;6.55;;;3.40;;
58928;SDS011;44713;53.378;10.022;2023-06-24T13:51:38;5.50;;;3.63;;
58928;SDS011;44713;53.378;10.022;2023-06-24T13:54:04;3.95;;;3.40;;
58928;SDS011;44713;53.378;10.022;2023-06-24T13:56:29;5.10;;;3.47;;
58928;SDS011;44713;53.378;10.022;2023-06-24T13:58:55;4.65;;;3.53;;
58928;SDS011;44713;53.378;10.022;2023-06-24T14:01:21;5.25;;;3.30;;
58928;SDS011;44713;53.378;10.022;2023-06-24T14:03:47;3.85;;;3.25;;
58928;SDS011;44713;53.378;10.022;2023-06-24T14:06:14;3.70;;;3.40;;
58928;SDS011;44713;53.378;10.022;2023-06-24T14:08:41;6.30;;;3.88;;
58928;SDS011;44713;53.378;10.022;2023-06-24T14:11:06;3.97;;;3.58;;
58928;SDS011;44713;53.378;10.022;2023-06-24T14:13:32;4.32;;;3.40;;
58928;SDS011;44713;53.378;10.022;2023-06-24T14:15:57;3.55;;;3.25;;
58928;SDS011;44713;53.378;10.022;2023-06-24T14:18:23;4.68;;;3.33;;
58928;SDS011;44713;53.378;10.022;2023-06-24T14:20:49;4.35;;;3.58;;
58928;SDS011;44713;53.378;10.022;2023-06-24T14:23:14;3.70;;;3.40;;
58928;SDS011;44713;53.378;10.022;2023-06-24T14:25:40;4.32;;;3.50;;
58928;SDS011;44713;53.378;10.022;2023-06-24T14:28:05;3.67;;;3.38;;
58928;SDS011;44713;53.378;10.022;2023-06-24T14:30:31;3.90;;;3.50;;
58928;SDS011;44713;53.378;10.022;2023-06-24T14:32:56;5.68;;;3.03;;
58928;SDS011;44713;53.378;10.022;2023-06-24T14:35:22;4.45;;;3.53;;
58928;SDS011;44713;53.378;10.022;2023-06-24T14:37:47;5.15;;;3.15;;
58928;SDS011;44713;53.378;10.022;2023-06-24T14:40:12;4.68;;;3.47;;
58928;SDS011;44713;53.378;10.022;2023-06-24T14:42:38;3.80;;;2.97;;
58928;SDS011;44713;53.378;10.022;2023-06-24T14:45:03;3.88;;;3.47;;
58928;SDS011;44713;53.378;10.022;2023-06-24T14:47:29;3.70;;;3.35;;
58928;SDS011;44713;53.378;10.022;2023-06-24T14:49:54;3.70;;;3.30;;